Time;durP1;ratioP1;P1;durP2;ratioP2;P2;SDS_P1;SDS_P2;PMS_P1;PMS_P2;Temp;Humidity;BMP_temperature;BMP_pressure;BME280_temperature;BME280_humidity;BME280_pressure;Samples;Min_cycle;Max_cycle;Signal;HPM_P1;HPM_P2
2022/07/13 00:02:23;;;;;;;3.42;1.30;;;20.00;99.90;;;;;;4971111;28;20422;-56
2022/07/13 00:04:49;;;;;;;2.75;1.60;;;20.00;99.90;;;;;;4955216;28;20019;-52
2022/07/13 00:07:15;;;;;;;1.65;1.25;;;20.00;99.90;;;;;;4956170;28;20023;-53
2022/07/13 00:09:40;;;;;;;1.40;1.20;;;20.00;99.90;;;;;;4971438;28;20023;-53
2022/07/13 00:12:06;;;;;;;1.92;1.48;;;20.00;99.90;;;;;;4970833;28;20038;-55
2022/07/13 00:14:32;;;;;;;1.70;1.58;;;20.00;99.90;;;;;;4970739;28;20050;-53
2022/07/13 00:16:57;;;;;;;1.27;1.17;;;20.00;99.90;;;;;;4971027;28;20023;-52
2022/07/13 00:19:24;;;;;;;1.48;1.20;;;20.00;99.90;;;;;;4970711;28;20023;-52
2022/07/13 00:21:49;;;;;;;2.15;1.55;;;20.00;99.90;;;;;;4955899;28;20106;-52
2022/07/13 00:24:16;;;;;;;2.80;1.33;;;19.90;99.90;;;;;;4956073;28;20103;-55
2022/07/13 00:26:47;;;;;;;1.60;1.20;;;19.90;99.90;;;;;;4955750;28;20031;-52
2022/07/13 00:29:12;;;;;;;5.00;1.30;;;19.90;99.90;;;;;;4970470;28;20027;-56
2022/07/13 00:31:38;;;;;;;1.98;1.15;;;19.90;99.90;;;;;;4970538;28;20038;-52
2022/07/13 00:34:04;;;;;;;2.17;1.20;;;19.90;99.90;;;;;;4970835;28;20117;-56
2022/07/13 00:36:29;;;;;;;1.38;1.00;;;19.90;99.90;;;;;;4971234;28;20034;-55
2022/07/13 00:38:55;;;;;;;2.60;1.75;;;20.00;99.90;;;;;;4970362;28;20553;-55
2022/07/13 00:41:20;;;;;;;2.15;1.38;;;20.00;99.90;;;;;;4955560;28;20034;-50
2022/07/13 00:43:46;;;;;;;2.67;1.52;;;20.00;99.90;;;;;;4971197;28;20541;-56
2022/07/13 00:46:13;;;;;;;2.95;1.50;;;20.00;99.90;;;;;;4955108;28;20035;-51
2022/07/13 00:48:39;;;;;;;3.20;1.23;;;20.00;99.90;;;;;;4955688;28;20102;-53
2022/07/13 00:51:05;;;;;;;3.33;1.58;;;20.00;99.90;;;;;;4970172;28;20562;-53
2022/07/13 00:53:35;;;;;;;2.83;1.35;;;20.00;99.90;;;;;;4955348;28;20103;-56
2022/07/13 00:56:03;;;;;;;1.50;1.30;;;20.00;99.90;;;;;;4970150;28;20027;-55
2022/07/13 00:58:29;;;;;;;1.40;1.30;;;20.00;99.90;;;;;;4970200;28;20078;-52
2022/07/13 01:00:55;;;;;;;1.77;1.40;;;20.00;99.90;;;;;;4970236;28;20031;-55
2022/07/13 01:03:21;;;;;;;1.52;1.42;;;20.00;99.90;;;;;;4971045;28;20037;-52
2022/07/13 01:05:47;;;;;;;1.58;1.30;;;20.00;99.90;;;;;;4970136;28;20122;-53
2022/07/13 01:08:13;;;;;;;1.73;1.30;;;20.00;99.90;;;;;;4970442;28;20031;-52
2022/07/13 01:10:42;;;;;;;1.50;1.40;;;20.00;99.90;;;;;;4955175;28;20027;-56
2022/07/13 01:13:10;;;;;;;2.35;1.20;;;20.00;99.90;;;;;;4955272;28;20027;-51
2022/07/13 01:15:36;;;;;;;1.80;1.50;;;20.00;99.90;;;;;;4955141;28;20127;-50
2022/07/13 01:18:02;;;;;;;2.00;1.23;;;20.00;99.90;;;;;;4970355;28;20066;-52
2022/07/13 01:20:29;;;;;;;3.35;1.38;;;19.90;99.90;;;;;;4955367;28;20098;-52
2022/07/13 01:22:56;;;;;;;2.72;1.30;;;19.90;99.90;;;;;;4969995;28;20061;-51
2022/07/13 01:25:22;;;;;;;1.55;1.40;;;19.90;99.90;;;;;;4970274;28;20031;-50
2022/07/13 01:31:09;;;;;;;1.55;1.13;;;19.80;99.90;;;;;;4955321;29;20034;-55
2022/07/13 01:33:35;;;;;;;3.25;1.50;;;19.80;99.90;;;;;;4969854;28;20023;-55
2022/07/13 01:36:00;;;;;;;2.55;1.45;;;19.70;99.90;;;;;;4960113;28;20031;-52
2022/07/13 01:38:26;;;;;;;2.20;1.40;;;19.60;99.90;;;;;;4973097;28;20034;-57
2022/07/13 01:40:52;;;;;;;3.45;1.67;;;19.50;99.90;;;;;;4974191;28;20023;-52
2022/07/13 01:43:18;;;;;;;1.30;1.20;;;19.40;99.90;;;;;;4974215;28;20110;-53
2022/07/13 01:45:45;;;;;;;2.63;1.40;;;19.30;99.90;;;;;;4972992;28;20054;-52
2022/07/13 01:48:11;;;;;;;2.28;1.48;;;19.30;99.90;;;;;;4974065;28;20027;-50
2022/07/13 01:50:36;;;;;;;3.10;1.33;;;19.30;99.90;;;;;;4972867;28;20089;-52
2022/07/13 01:53:02;;;;;;;4.28;1.75;;;19.30;99.90;;;;;;4974436;28;20085;-51
2022/07/13 01:55:28;;;;;;;2.05;1.15;;;19.30;99.90;;;;;;4974091;28;20034;-52
2022/07/13 01:57:58;;;;;;;1.92;1.33;;;19.30;99.90;;;;;;4974070;28;20026;-55
2022/07/13 02:00:24;;;;;;;2.83;1.40;;;19.30;99.90;;;;;;4972800;28;20034;-57
2022/07/13 02:02:50;;;;;;;2.42;1.60;;;19.30;99.90;;;;;;4972712;28;20038;-55
2022/07/13 02:05:16;;;;;;;1.98;1.55;;;19.30;99.90;;;;;;4974329;28;20035;-55
2022/07/13 02:07:42;;;;;;;1.85;1.40;;;19.20;99.90;;;;;;4973978;28;20034;-53
2022/07/13 02:10:10;;;;;;;2.13;1.50;;;19.20;99.90;;;;;;4973466;28;20027;-54
2022/07/13 02:12:35;;;;;;;3.65;1.55;;;19.20;99.90;;;;;;4973565;28;20027;-53
2022/07/13 02:15:01;;;;;;;2.75;1.30;;;19.20;99.90;;;;;;4972760;28;20027;-53
2022/07/13 02:17:27;;;;;;;2.20;1.40;;;19.20;99.90;;;;;;4976403;28;20077;-51
2022/07/13 02:19:53;;;;;;;2.05;1.55;;;19.20;99.90;;;;;;4976425;28;20023;-56
2022/07/13 02:22:18;;;;;;;3.30;1.30;;;19.30;99.90;;;;;;4977576;28;20046;-57
2022/07/13 02:24:44;;;;;;;2.45;1.70;;;19.20;99.90;;;;;;4977279;28;20097;-56
2022/07/13 02:27:10;;;;;;;2.40;1.17;;;19.20;99.90;;;;;;4977475;28;20023;-55
2022/07/13 02:29:35;;;;;;;3.28;1.60;;;19.20;99.90;;;;;;4977443;28;20026;-54
2022/07/13 02:32:02;;;;;;;6.15;1.30;;;19.10;99.90;;;;;;4977293;28;20023;-55
2022/07/13 02:34:28;;;;;;;1.45;1.27;;;19.10;99.90;;;;;;4977544;28;20076;-51
2022/07/13 02:36:55;;;;;;;1.55;1.40;;;19.10;99.90;;;;;;4976505;28;20030;-51
2022/07/13 02:39:21;;;;;;;3.53;1.52;;;19.10;99.90;;;;;;4976317;28;20026;-51
2022/07/13 02:41:47;;;;;;;3.35;1.65;;;19.10;99.90;;;;;;4976020;28;20027;-53
2022/07/13 02:44:12;;;;;;;2.97;1.75;;;19.00;99.90;;;;;;4977199;28;20019;-53
2022/07/13 02:46:38;;;;;;;1.65;1.48;;;19.10;99.90;;;;;;4976545;28;20037;-53
2022/07/13 02:49:03;;;;;;;2.13;1.55;;;19.10;99.90;;;;;;4976165;28;20034;-52
2022/07/13 02:51:29;;;;;;;6.82;3.75;;;19.20;99.90;;;;;;4975647;28;20026;-51
2022/07/13 02:53:54;;;;;;;4.10;3.05;;;19.20;99.90;;;;;;4975652;28;20029;-52
2022/07/13 02:56:20;;;;;;;11.40;4.50;;;19.20;99.90;;;;;;4975772;28;20049;-50
2022/07/13 02:58:46;;;;;;;7.75;4.45;;;19.20;99.90;;;;;;4976893;28;20026;-51
2022/07/13 03:01:11;;;;;;;2.97;1.92;;;19.20;99.90;;;;;;4975445;28;20031;-55
2022/07/13 03:03:37;;;;;;;13.48;6.85;;;19.20;99.90;;;;;;4975327;28;20031;-53
2022/07/13 03:06:03;;;;;;;5.72;2.58;;;19.10;99.90;;;;;;4975366;28;20027;-51
2022/07/13 03:08:28;;;;;;;1.90;1.67;;;19.10;99.90;;;;;;4975317;28;20082;-52
2022/07/13 03:10:54;;;;;;;2.28;1.63;;;19.10;99.90;;;;;;4976485;28;20023;-55
2022/07/13 03:13:19;;;;;;;2.75;1.52;;;19.10;99.90;;;;;;4975478;28;20037;-56
2022/07/13 03:15:45;;;;;;;3.80;2.53;;;19.10;99.90;;;;;;4975068;28;20512;-53
2022/07/13 03:18:28;;;;;;;4.13;2.67;;;19.20;99.90;;;;;;4975132;28;20019;-52
2022/07/13 03:20:54;;;;;;;3.33;1.60;;;19.10;99.90;;;;;;4976262;28;20029;-55
2022/07/13 03:23:19;;;;;;;1.65;1.50;;;19.10;99.90;;;;;;4975040;28;20026;-54
2022/07/13 03:25:45;;;;;;;4.07;1.70;;;19.10;99.90;;;;;;4976220;28;20018;-51
2022/07/13 03:28:11;;;;;;;2.70;1.60;;;19.10;99.90;;;;;;4975088;28;20033;-51
2022/07/13 03:30:37;;;;;;;4.35;1.88;;;19.00;99.90;;;;;;4975024;28;20034;-52
2022/07/13 03:33:02;;;;;;;4.40;1.67;;;19.10;99.90;;;;;;4976012;28;20027;-56
2022/07/13 03:35:28;;;;;;;4.90;2.00;;;19.10;99.90;;;;;;4974393;28;20030;-56
2022/07/13 03:37:54;;;;;;;2.25;1.58;;;19.10;99.90;;;;;;4975929;28;20022;-52
2022/07/13 03:43:41;;;;;;;;;;;19.10;99.90;;;;;;4976656;28;20042;-50
2022/07/13 03:46:07;;;;;;;3.25;1.55;;;19.20;99.90;;;;;;4974532;28;20284;-50
2022/07/13 03:48:32;;;;;;;2.92;1.40;;;19.20;99.90;;;;;;4974545;28;20069;-57
2022/07/13 03:50:58;;;;;;;1.80;1.60;;;19.20;99.90;;;;;;4975901;28;20030;-53
2022/07/13 03:53:24;;;;;;;2.67;1.60;;;19.20;99.90;;;;;;4974715;28;20034;-53
2022/07/13 03:55:49;;;;;;;2.97;2.15;;;19.20;99.90;;;;;;4974290;28;20022;-55
2022/07/13 03:58:15;;;;;;;3.08;2.00;;;19.30;99.90;;;;;;4974287;28;20481;-54
2022/07/13 04:00:40;;;;;;;4.45;1.75;;;19.20;99.90;;;;;;4974352;28;20417;-51
2022/07/13 04:03:06;;;;;;;2.50;1.73;;;19.20;99.90;;;;;;4974294;28;20033;-56
2022/07/13 04:05:32;;;;;;;6.28;2.05;;;19.30;99.90;;;;;;4975450;28;20027;-54
2022/07/13 04:07:58;;;;;;;1.85;1.63;;;19.30;99.90;;;;;;4974167;28;20031;-55
2022/07/13 04:10:23;;;;;;;1.88;1.45;;;19.30;99.90;;;;;;4974339;28;20027;-55
2022/07/13 04:12:49;;;;;;;3.17;1.75;;;19.40;99.90;;;;;;4975377;28;20077;-55
2022/07/13 04:15:16;;;;;;;2.20;1.45;;;19.50;99.90;;;;;;4975335;28;20030;-50
2022/07/13 04:17:43;;;;;;;2.88;1.65;;;19.60;99.90;;;;;;4975308;28;20033;-54
2022/07/13 04:20:10;;;;;;;3.20;1.77;;;19.50;99.90;;;;;;4973891;28;20026;-52
2022/07/13 04:22:36;;;;;;;4.32;1.70;;;19.50;99.90;;;;;;4973935;28;20033;-50
2022/07/13 04:25:03;;;;;;;3.15;2.00;;;19.70;99.90;;;;;;4974230;28;20109;-50
2022/07/13 04:27:29;;;;;;;2.85;1.98;;;19.70;99.90;;;;;;4973912;28;20023;-53
2022/07/13 04:29:55;;;;;;;3.08;1.95;;;19.80;99.90;;;;;;4974151;28;20076;-53
2022/07/13 04:32:20;;;;;;;3.13;1.90;;;19.90;99.90;;;;;;4973840;28;20022;-50
2022/07/13 04:34:46;;;;;;;2.08;1.65;;;19.90;99.90;;;;;;4974887;28;20239;-52
2022/07/13 04:37:12;;;;;;;2.85;1.80;;;20.00;99.90;;;;;;4973680;28;20045;-53
2022/07/13 04:39:40;;;;;;;3.85;1.80;;;20.00;99.90;;;;;;4974995;28;20074;-55
2022/07/13 04:42:06;;;;;;;2.88;2.47;;;20.00;99.90;;;;;;4973721;28;20019;-54
2022/07/13 04:44:32;;;;;;;1.90;1.70;;;19.90;99.90;;;;;;4974489;28;20023;-57
2022/07/13 04:46:57;;;;;;;4.32;2.25;;;19.90;99.90;;;;;;4974785;28;20038;-55
2022/07/13 04:49:23;;;;;;;3.45;2.00;;;19.80;99.90;;;;;;4973580;28;20030;-56
2022/07/13 04:51:50;;;;;;;1.67;1.20;;;19.80;99.90;;;;;;4973510;28;20532;-56
2022/07/13 04:54:20;;;;;;;3.22;1.67;;;19.80;99.90;;;;;;4974782;28;20050;-50
2022/07/13 04:56:46;;;;;;;3.03;1.52;;;19.80;99.90;;;;;;4973387;28;20058;-51
2022/07/13 04:59:12;;;;;;;2.80;1.65;;;19.90;99.90;;;;;;4973331;28;20030;-56
2022/07/13 05:01:39;;;;;;;3.50;1.90;;;20.00;99.90;;;;;;4974779;28;20054;-52
2022/07/13 05:04:05;;;;;;;7.72;2.08;;;20.10;99.90;;;;;;4974593;28;20492;-54
2022/07/13 05:09:52;;;;;;;5.93;2.15;;;20.20;99.90;;;;;;4974568;28;20091;-52
2022/07/13 05:12:18;;;;;;;3.88;1.90;;;20.30;99.90;;;;;;4973301;28;20063;-54
2022/07/13 05:14:43;;;;;;;9.30;2.05;;;20.40;99.90;;;;;;4973576;28;20030;-55
2022/07/13 05:17:09;;;;;;;4.05;2.47;;;20.40;99.90;;;;;;4974719;28;20031;-57
2022/07/13 05:19:35;;;;;;;2.58;1.90;;;20.50;99.90;;;;;;4973738;28;20061;-57
2022/07/13 05:22:00;;;;;;;4.07;1.60;;;20.50;99.90;;;;;;4973486;28;20023;-54
2022/07/13 05:24:26;;;;;;;2.85;1.98;;;20.60;99.90;;;;;;4974412;28;20114;-53
2022/07/13 05:26:51;;;;;;;2.47;1.80;;;20.60;99.90;;;;;;4973135;28;20027;-54
2022/07/13 05:29:17;;;;;;;1.90;1.70;;;20.60;99.90;;;;;;4974378;28;20027;-52
2022/07/13 05:31:42;;;;;;;2.28;1.70;;;20.70;99.90;;;;;;4974401;28;20031;-54
2022/07/13 05:34:08;;;;;;;2.90;1.50;;;20.70;99.90;;;;;;4973075;28;20026;-53
2022/07/13 05:36:34;;;;;;;3.80;1.95;;;20.80;99.90;;;;;;4972589;28;20402;-57
2022/07/13 05:39:00;;;;;;;4.10;1.95;;;20.90;99.90;;;;;;4973030;28;20019;-52
2022/07/13 05:41:27;;;;;;;6.07;1.60;;;21.10;99.90;;;;;;4972874;28;20371;-50
2022/07/13 05:43:52;;;;;;;3.75;1.80;;;21.20;99.90;;;;;;4974570;28;20019;-56
2022/07/13 05:46:18;;;;;;;1.85;1.50;;;21.40;99.90;;;;;;4974258;28;20023;-56
2022/07/13 05:48:43;;;;;;;2.15;1.70;;;21.40;99.90;;;;;;4974236;28;20034;-55
2022/07/13 05:51:09;;;;;;;2.30;1.58;;;21.60;99.90;;;;;;4974707;28;20031;-55
2022/07/13 05:53:35;;;;;;;4.45;2.10;;;21.70;99.90;;;;;;4977190;28;20035;-54
2022/07/13 05:56:00;;;;;;;4.05;1.65;;;21.70;99.90;;;;;;4976753;28;20023;-56
2022/07/13 05:58:26;;;;;;;1.92;1.50;;;21.80;99.90;;;;;;4977738;28;20023;-54
2022/07/13 06:01:26;;;;;;;4.22;2.00;;;21.90;99.90;;;;;;4972801;28;20055;-57
2022/07/13 06:03:51;;;;;;;2.72;1.55;;;22.00;99.90;;;;;;4958256;28;20035;-54
2022/07/13 06:06:17;;;;;;;6.78;2.15;;;22.20;99.90;;;;;;4957693;28;20028;-52
2022/07/13 06:08:43;;;;;;;5.30;2.03;;;22.30;99.90;;;;;;4957468;29;20047;-55
2022/07/13 06:11:09;;;;;;;5.75;2.17;;;22.30;99.90;;;;;;4958174;28;20032;-54
2022/07/13 06:13:34;;;;;;;2.20;1.80;;;22.30;99.90;;;;;;4958859;28;20037;-53
2022/07/13 06:16:01;;;;;;;2.30;1.98;;;22.50;99.90;;;;;;4958446;28;20027;-57
2022/07/13 06:18:27;;;;;;;3.20;1.85;;;22.70;99.90;;;;;;4958147;28;20024;-56
2022/07/13 06:20:53;;;;;;;3.88;2.20;;;22.70;99.90;;;;;;4957075;28;20036;-55
2022/07/13 06:23:20;;;;;;;1.80;1.70;;;22.70;99.90;;;;;;4958329;28;20059;-50
2022/07/13 06:25:46;;;;;;;3.67;1.55;;;22.50;99.90;;;;;;4956785;28;20114;-51
2022/07/13 06:28:12;;;;;;;6.97;2.10;;;22.50;99.90;;;;;;4957905;28;20023;-54
2022/07/13 06:30:38;;;;;;;1.50;1.40;;;22.50;99.90;;;;;;4957933;28;20473;-57
2022/07/13 06:33:04;;;;;;;3.17;1.80;;;22.70;99.90;;;;;;4957811;28;20019;-57
2022/07/13 06:35:32;;;;;;;1.70;1.60;;;23.00;99.90;;;;;;4956524;28;20035;-56
2022/07/13 06:37:58;;;;;;;2.55;1.55;;;23.10;99.90;;;;;;4956653;28;20043;-55
2022/07/13 06:40:24;;;;;;;1.52;1.30;;;23.20;99.90;;;;;;4957929;28;20020;-56
2022/07/13 06:42:50;;;;;;;2.75;2.08;;;23.40;99.90;;;;;;4957767;28;20459;-56
2022/07/13 06:45:16;;;;;;;2.08;1.35;;;23.40;99.90;;;;;;4957710;28;20027;-58
2022/07/13 06:51:04;;;;;;;3.05;1.83;;;23.30;99.90;;;;;;4957769;29;20023;-53
2022/07/13 06:53:30;;;;;;;5.38;2.85;;;23.40;99.90;;;;;;4957846;28;20028;-54
2022/07/13 06:55:56;;;;;;;7.05;3.33;;;23.50;99.90;;;;;;4956518;28;20039;-57
2022/07/13 06:58:22;;;;;;;4.32;2.63;;;23.50;99.90;;;;;;4956170;28;20027;-56
2022/07/13 07:00:48;;;;;;;5.97;2.92;;;23.60;99.90;;;;;;4972957;28;20157;-57
2022/07/13 07:03:13;;;;;;;8.20;2.30;;;23.80;99.90;;;;;;4975247;28;20027;-56
2022/07/13 07:05:39;;;;;;;4.40;2.30;;;24.00;99.90;;;;;;4976606;28;20124;-55
2022/07/13 07:08:05;;;;;;;5.28;2.13;;;24.30;99.90;;;;;;4976532;28;20026;-57
2022/07/13 07:10:31;;;;;;;2.88;1.80;;;24.50;99.90;;;;;;4976720;28;20029;-59
2022/07/13 07:12:57;;;;;;;3.72;2.45;;;24.70;99.90;;;;;;4976553;28;20026;-55
2022/07/13 07:15:23;;;;;;;6.00;2.22;;;25.10;99.90;;;;;;4975117;28;20117;-57
2022/07/13 07:17:49;;;;;;;2.47;1.70;;;25.70;99.90;;;;;;4976351;28;20026;-57
2022/07/13 07:20:15;;;;;;;2.53;1.80;;;25.70;99.90;;;;;;4975636;28;20022;-56
2022/07/13 07:22:41;;;;;;;2.33;1.95;;;25.90;99.90;;;;;;4975139;28;20030;-55
2022/07/13 07:25:08;;;;;;;1.35;1.25;;;25.90;99.90;;;;;;4975339;28;20030;-56
2022/07/13 07:27:34;;;;;;;1.80;1.30;;;25.90;99.90;;;;;;4974999;28;20018;-54
2022/07/13 07:30:08;;;;;;;4.13;1.50;;;25.60;99.90;;;;;;4974755;28;20026;-56
2022/07/13 07:32:55;;;;;;;4.97;1.40;;;25.50;99.90;;;;;;4995493;28;20028;-57
2022/07/13 07:35:21;;;;;;;2.97;1.35;;;25.30;99.90;;;;;;4994403;28;20041;-55
2022/07/13 07:37:46;;;;;;;1.30;1.20;;;25.00;99.90;;;;;;4994203;28;20022;-59
2022/07/13 07:40:12;;;;;;;2.53;1.58;;;25.10;99.90;;;;;;4995325;28;20029;-59
2022/07/13 07:42:37;;;;;;;6.53;1.70;;;25.10;99.90;;;;;;4994053;28;20030;-58
2022/07/13 07:45:04;;;;;;;1.98;1.25;;;25.30;99.90;;;;;;4994129;28;20057;-60
2022/07/13 07:47:30;;;;;;;3.78;1.23;;;25.40;99.90;;;;;;4995479;28;20026;-59
2022/07/13 07:53:05;;;;;;;5.15;1.60;;;25.50;99.90;;;;;;4995700;28;20081;-54
2022/07/13 07:55:31;;;;;;;2.15;1.35;;;25.40;99.90;;;;;;4993707;28;20026;-57
2022/07/13 07:57:57;;;;;;;2.92;1.00;;;25.50;99.90;;;;;;4995340;28;20089;-57
2022/07/13 08:00:22;;;;;;;4.20;1.23;;;25.60;99.90;;;;;;4995011;28;20019;-56
2022/07/13 08:02:48;;;;;;;4.05;1.20;;;25.50;99.90;;;;;;4993552;28;20117;-53
2022/07/13 08:05:14;;;;;;;4.18;1.52;;;25.50;99.90;;;;;;4994807;28;20034;-60
2022/07/13 08:07:42;;;;;;;6.50;1.05;;;25.40;99.90;;;;;;4994855;28;20033;-56
2022/07/13 08:13:30;;;;;;;3.85;1.42;;;25.60;99.90;;;;;;4994411;28;20037;-59
2022/07/13 08:15:56;;;;;;;14.45;1.75;;;25.70;99.90;;;;;;4994673;28;20497;-57
2022/07/13 08:18:22;;;;;;;3.50;2.05;;;25.70;99.90;;;;;;4994730;28;20023;-53
2022/07/13 08:20:47;;;;;;;9.38;1.65;;;25.50;99.90;;;;;;4993664;28;20026;-55
2022/07/13 08:26:14;;;;;;;6.50;1.40;;;25.10;99.90;;;;;;4990897;28;20081;-52
2022/07/13 08:28:40;;;;;;;2.53;1.60;;;24.90;99.90;;;;;;4974463;28;20034;-55
2022/07/13 08:31:05;;;;;;;2.55;1.38;;;25.00;99.90;;;;;;4974985;28;20027;-52
2022/07/13 08:39:35;;;;;;;5.50;1.58;;;24.90;99.90;;;;;;4974761;28;20041;-56
2022/07/13 08:42:01;;;;;;;5.65;1.55;;;25.20;99.90;;;;;;4974867;28;20026;-50
2022/07/13 08:44:27;;;;;;;5.03;1.67;;;25.00;99.90;;;;;;4974901;28;20023;-53
2022/07/13 08:46:53;;;;;;;3.83;1.55;;;25.10;99.90;;;;;;4973439;28;20023;-51
2022/07/13 08:49:21;;;;;;;4.07;1.00;;;25.40;99.90;;;;;;4973464;28;20030;-56
2022/07/13 08:51:48;;;;;;;4.65;1.23;;;25.70;99.90;;;;;;4973568;28;20073;-53
2022/07/13 08:57:38;;;;;;;3.67;1.38;;;26.10;99.90;;;;;;4975297;28;20094;-58
2022/07/13 09:00:07;;;;;;;2.60;1.50;;;26.20;99.90;;;;;;4973544;28;20031;-57
2022/07/13 09:02:33;;;;;;;4.57;1.30;;;26.00;99.90;;;;;;4974581;28;20478;-58
2022/07/13 09:08:21;;;;;;;1.75;1.30;;;26.40;99.90;;;;;;4974767;28;20029;-60
2022/07/13 09:11:01;;;;;;;3.67;1.50;;;26.20;99.90;;;;;;4973039;28;20022;-59
2022/07/13 09:13:40;;;;;;;4.15;1.40;;;26.40;99.90;;;;;;4973114;28;20055;-60
2022/07/13 09:16:28;;;;;;;6.22;1.40;;;26.40;99.90;;;;;;4974773;28;20085;-56
2022/07/13 09:18:59;;;;;;;3.42;1.50;;;26.60;99.90;;;;;;4973606;28;20030;-59
2022/07/13 09:21:26;;;;;;;1.80;1.00;;;26.80;99.90;;;;;;4973179;28;20050;-61
2022/07/13 09:23:57;;;;;;;7.50;2.10;;;27.10;99.90;;;;;;4973420;28;20030;-59
2022/07/13 09:26:23;;;;;;;3.83;2.03;;;27.00;99.90;;;;;;4977105;28;20062;-60
2022/07/13 09:28:51;;;;;;;2.72;1.80;;;26.80;99.90;;;;;;4978249;28;20498;-59
2022/07/13 09:31:23;;;;;;;3.65;1.90;;;26.50;99.90;;;;;;4978107;28;20038;-59
2022/07/13 09:33:49;;;;;;;3.95;1.58;;;26.30;99.90;;;;;;4977061;28;20059;-56
2022/07/13 09:36:18;;;;;;;5.47;1.75;;;26.40;99.90;;;;;;4976948;28;20034;-55
2022/07/13 09:39:07;;;;;;;3.83;1.60;;;26.20;99.90;;;;;;4978316;28;20026;-57
2022/07/13 09:41:33;;;;;;;3.25;1.75;;;26.20;99.90;;;;;;4978107;28;20031;-57
2022/07/13 09:46:52;;;;;;;3.13;1.85;;;26.10;99.90;;;;;;4978503;28;20050;-57
2022/07/13 09:49:19;;;;;;;3.55;1.70;;;26.00;99.90;;;;;;4976632;28;20105;-55
2022/07/13 09:51:45;;;;;;;2.67;1.52;;;26.10;99.90;;;;;;4977025;28;20437;-56
2022/07/13 09:54:12;;;;;;;5.85;2.50;;;26.20;99.90;;;;;;5009154;28;20028;-56
2022/07/13 09:56:46;;;;;;;3.08;1.65;;;26.30;99.90;;;;;;4978057;28;20027;-56
2022/07/13 09:59:13;;;;;;;9.25;2.20;;;26.20;99.90;;;;;;4978021;28;20074;-56
2022/07/13 10:01:38;;;;;;;4.32;1.83;;;26.30;99.90;;;;;;4976513;28;20437;-57
2022/07/13 10:04:05;;;;;;;6.85;2.03;;;26.60;99.90;;;;;;5008921;28;20027;-54
2022/07/13 10:06:32;;;;;;;2.30;1.65;;;27.00;99.90;;;;;;4976379;28;20398;-57
2022/07/13 10:08:58;;;;;;;7.20;1.85;;;27.30;99.90;;;;;;4976317;28;20034;-56
2022/07/13 10:11:24;;;;;;;3.58;1.73;;;27.50;99.90;;;;;;4976320;28;20113;-55
2022/07/13 10:13:51;;;;;;;4.55;1.90;;;27.70;99.90;;;;;;4977542;28;20027;-55
2022/07/13 10:16:16;;;;;;;6.22;1.40;;;27.80;99.90;;;;;;4994919;28;20034;-57
2022/07/13 10:18:43;;;;;;;3.58;1.63;;;27.90;99.90;;;;;;4995721;28;20050;-55
2022/07/13 10:21:46;;;;;;;4.38;1.90;;;27.90;99.90;;;;;;4995990;28;20114;-57
2022/07/13 10:24:16;;;;;;;2.67;1.50;;;28.00;99.90;;;;;;4996924;28;20027;-52
2022/07/13 10:26:42;;;;;;;5.53;1.50;;;28.10;99.90;;;;;;4995582;28;20077;-58
2022/07/13 10:29:11;;;;;;;5.97;1.60;;;28.30;99.90;;;;;;4995748;28;20046;-57
2022/07/13 10:31:40;;;;;;;3.38;1.30;;;28.50;99.90;;;;;;4984731;28;20089;-56
2022/07/13 10:34:07;;;;;;;1.55;1.25;;;28.60;99.90;;;;;;4977263;28;20026;-53
2022/07/13 10:36:50;;;;;;;5.22;1.33;;;28.90;99.90;;;;;;4975233;28;20114;-56
2022/07/13 10:39:17;;;;;;;2.25;1.58;;;29.50;99.90;;;;;;4975865;28;20023;-57
2022/07/13 10:42:02;;;;;;;3.90;1.48;;;29.70;99.90;;;;;;4976671;28;20062;-57
2022/07/13 10:44:42;;;;;;;2.13;1.40;;;30.00;99.90;;;;;;4976107;28;20030;-57
2022/07/13 10:47:11;;;;;;;1.98;0.82;;;30.30;99.90;;;;;;4975756;28;20481;-57
2022/07/13 10:49:44;;;;;;;1.30;1.10;;;30.50;99.90;;;;;;4974200;28;20023;-56
2022/07/13 10:52:22;;;;;;;1.40;1.00;;;30.60;97.20;;;;;;4957666;28;20027;-57
2022/07/13 10:55:11;;;;;;;1.10;0.90;;;30.60;95.80;;;;;;4957604;28;20073;-56
2022/07/13 10:57:39;;;;;;;2.50;1.10;;;30.50;94.80;;;;;;4956343;28;20070;-58
2022/07/13 11:00:16;;;;;;;1.77;1.38;;;30.40;93.90;;;;;;4956163;29;20024;-56
2022/07/13 11:02:48;;;;;;;0.90;0.90;;;30.40;93.60;;;;;;4956806;28;20027;-58
2022/07/13 11:05:17;;;;;;;2.50;0.98;;;30.70;92.60;;;;;;4957337;29;20074;-57
2022/07/13 11:07:50;;;;;;;7.78;1.20;;;31.00;91.30;;;;;;4956060;28;20046;-57
2022/07/13 11:10:22;;;;;;;2.97;0.80;;;31.20;91.70;;;;;;4973534;28;20081;-57
2022/07/13 11:13:09;;;;;;;2.38;1.15;;;31.40;91.00;;;;;;4976535;28;20019;-55
2022/07/13 11:15:46;;;;;;;1.48;1.15;;;31.50;89.40;;;;;;4975163;28;20023;-58
2022/07/13 11:18:24;;;;;;;1.42;1.13;;;31.70;89.50;;;;;;4976060;28;20023;-58
2022/07/13 11:21:03;;;;;;;3.25;1.10;;;31.90;88.80;;;;;;4975590;28;20362;-58
2022/07/13 11:26:47;;;;;;;2.00;1.20;;;32.10;85.50;;;;;;4961919;28;20042;-57
2022/07/13 11:29:30;;;;;;;6.05;1.15;;;32.10;83.90;;;;;;4955936;29;20035;-57
2022/07/13 11:32:04;;;;;;;2.88;1.40;;;32.10;80.80;;;;;;4955693;28;20032;-57
2022/07/13 11:34:30;;;;;;;3.50;1.40;;;32.20;83.30;;;;;;4955827;28;20031;-56
2022/07/13 11:37:00;;;;;;;1.67;1.08;;;32.30;81.10;;;;;;4955410;28;20030;-58
2022/07/13 11:39:27;;;;;;;2.38;1.05;;;32.30;82.00;;;;;;4955744;28;20030;-57
2022/07/13 11:41:54;;;;;;;2.90;0.88;;;32.40;83.10;;;;;;4955386;28;20031;-58
2022/07/13 11:44:24;;;;;;;3.97;1.42;;;32.20;78.50;;;;;;4956684;28;20550;-58
2022/07/13 11:46:50;;;;;;;2.20;1.40;;;32.00;78.20;;;;;;4955374;28;20031;-54
2022/07/13 11:49:16;;;;;;;2.83;1.10;;;32.00;77.20;;;;;;4955520;28;20027;-54
2022/07/13 11:51:45;;;;;;;2.45;0.95;;;31.90;78.00;;;;;;4955643;29;20509;-58
2022/07/13 11:54:16;;;;;;;1.23;1.05;;;31.80;76.30;;;;;;4956393;28;20470;-58
2022/07/13 11:56:52;;;;;;;2.65;0.93;;;31.80;75.50;;;;;;4956298;28;20082;-58
2022/07/13 11:59:39;;;;;;;5.22;1.10;;;31.90;78.30;;;;;;4955171;28;20023;-58
2022/07/13 12:02:09;;;;;;;1.52;1.05;;;31.90;80.00;;;;;;4954536;28;20031;-56
2022/07/13 12:11:19;;;;;;;3.63;1.00;;;32.20;76.40;;;;;;4956086;29;20394;-52
2022/07/13 12:13:46;;;;;;;3.53;0.80;;;32.20;76.70;;;;;;4954761;28;20451;-56
2022/07/13 12:16:14;;;;;;;2.35;1.02;;;32.20;76.60;;;;;;4954635;28;20058;-56
2022/07/13 12:19:01;;;;;;;1.48;1.30;;;32.20;76.50;;;;;;4955791;29;20049;-55
2022/07/13 12:21:27;;;;;;;2.55;1.05;;;32.20;77.70;;;;;;4954862;29;20023;-52
2022/07/13 12:23:53;;;;;;;1.20;1.02;;;32.20;75.80;;;;;;4954485;28;20478;-57
2022/07/13 12:26:19;;;;;;;1.70;1.30;;;32.20;77.90;;;;;;4954434;28;20086;-58
2022/07/13 12:28:44;;;;;;;1.67;0.80;;;32.20;77.10;;;;;;4954529;28;20035;-57
2022/07/13 12:34:32;;;;;;;1.80;0.90;;;32.20;74.10;;;;;;4955939;29;20389;-58
2022/07/13 12:36:58;;;;;;;1.88;0.80;;;32.10;68.90;;;;;;4955575;28;20024;-56
2022/07/13 12:39:40;;;;;;;1.00;0.77;;;32.00;69.10;;;;;;4954265;28;20078;-57
2022/07/13 12:42:07;;;;;;;1.88;0.75;;;31.90;69.90;;;;;;4955819;28;20118;-58
2022/07/13 12:44:32;;;;;;;0.80;0.80;;;31.80;69.70;;;;;;4954247;28;20028;-55
2022/07/13 12:47:02;;;;;;;1.90;1.00;;;31.90;68.30;;;;;;4954196;28;20118;-58
2022/07/13 12:49:47;;;;;;;3.30;0.90;;;31.90;69.60;;;;;;4954172;28;20078;-55
2022/07/13 12:52:13;;;;;;;2.58;1.10;;;32.00;69.00;;;;;;4954377;28;20487;-58
2022/07/13 12:54:52;;;;;;;4.05;1.17;;;32.10;69.40;;;;;;4955233;28;20114;-56
2022/07/13 12:57:18;;;;;;;3.17;1.00;;;32.00;67.50;;;;;;4955266;28;20027;-58
2022/07/13 13:00:11;;;;;;;2.13;0.90;;;31.90;67.70;;;;;;4954982;28;20033;-58
2022/07/13 13:02:40;;;;;;;0.77;0.73;;;31.70;70.00;;;;;;4955274;29;20054;-58
2022/07/13 13:05:11;;;;;;;0.80;0.80;;;31.60;71.30;;;;;;4954211;29;20027;-58
2022/07/13 13:08:10;;;;;;;4.45;1.13;;;31.50;69.20;;;;;;4954177;28;20023;-57
2022/07/13 13:10:35;;;;;;;3.60;0.93;;;31.40;67.80;;;;;;4954213;29;20023;-57
2022/07/13 13:13:01;;;;;;;4.57;0.82;;;31.50;67.90;;;;;;4955074;28;20031;-58
2022/07/13 13:15:26;;;;;;;2.78;1.35;;;31.60;69.20;;;;;;4955117;28;20046;-58
2022/07/13 13:17:52;;;;;;;1.45;0.90;;;31.50;66.10;;;;;;4953901;28;20100;-54
2022/07/13 13:20:22;;;;;;;2.28;0.82;;;31.40;67.30;;;;;;4955784;28;20074;-53
2022/07/13 13:22:47;;;;;;;1.45;0.85;;;31.40;67.50;;;;;;4974299;28;20027;-57
2022/07/13 13:25:13;;;;;;;4.10;0.82;;;31.40;65.90;;;;;;4974307;28;20069;-57
2022/07/13 13:27:44;;;;;;;1.67;0.85;;;31.40;66.90;;;;;;4974570;28;20023;-58
2022/07/13 13:30:43;;;;;;;;;;;31.40;67.60;;;;;;4973543;28;20174;-56
2022/07/13 13:33:18;;;;;;;1.60;0.80;;;31.60;67.50;;;;;;4973040;28;20293;-56
2022/07/13 13:35:45;;;;;;;3.22;1.00;;;31.70;67.90;;;;;;4958556;28;20024;-57
2022/07/13 13:38:11;;;;;;;2.95;1.00;;;31.90;68.20;;;;;;4954955;28;20073;-59
2022/07/13 13:40:38;;;;;;;3.15;0.80;;;31.90;66.50;;;;;;4953844;28;20118;-60
2022/07/13 13:43:04;;;;;;;2.00;1.00;;;32.00;68.90;;;;;;4953875;28;20070;-61
2022/07/13 13:45:31;;;;;;;1.95;0.93;;;32.00;67.20;;;;;;4953916;28;20498;-59